Wetterdaten: Woche 26.05.08 - 01.06.08 (KW22)
Datum Zeit Temperatur Luftfeuchte Luftdruck Niederschlag Wind Richtung Sonnenschein Solar Taupunkt Windchill Windben
26.05.2008 00:00 18.5 C 69 % 1009.4 hPa 0.0 l/m 0.2 km/h (0 Bft) O-NO 0.00 h 0 W/m 12.7 C 18.5 C 0.8 km/h (0 Bft)
26.05.2008 01:00 17.3 C 75 % 1009.7 hPa 0.0 l/m 0.5 km/h (0 Bft) O-NO 0.00 h 0 W/m 12.9 C 17.3 C 1.6 km/h (1 Bft)
26.05.2008 02:00 17.0 C 78 % 1010.6 hPa 0.0 l/m 0.5 km/h (0 Bft) O 0.00 h 0 W/m 13.1 C 17.0 C 1.9 km/h (1 Bft)
26.05.2008 03:00 16.7 C 81 % 1010.5 hPa 0.0 l/m 4.5 km/h (1 Bft) SO 0.00 h 0 W/m 13.3 C 16.7 C 6.7 km/h (2 Bft)
26.05.2008 04:00 17.4 C 74 % 1008.7 hPa 0.0 l/m 10.3 km/h (2 Bft) SO 0.00 h 0 W/m 12.8 C 17.4 C 15.4 km/h (3 Bft)
26.05.2008 05:00 18.1 C 70 % 1009.1 hPa 0.0 l/m 4.4 km/h (1 Bft) SO 0.00 h 0 W/m 12.6 C 18.1 C 7.3 km/h (2 Bft)
26.05.2008 06:00 17.7 C 72 % 1008.4 hPa 0.0 l/m 6.9 km/h (2 Bft) O-SO 0.00 h 40 W/m 12.6 C 17.7 C 10.8 km/h (2 Bft)
26.05.2008 07:00 17.8 C 73 % 1009.0 hPa 0.0 l/m 0.9 km/h (0 Bft) O-NO 0.00 h 91 W/m 12.9 C 17.8 C 2.4 km/h (1 Bft)
26.05.2008 08:00 18.0 C 76 % 1009.6 hPa 0.0 l/m 1.6 km/h (1 Bft) O-SO 0.00 h 80 W/m 13.7 C 18.0 C 3.4 km/h (1 Bft)
26.05.2008 09:00 18.1 C 80 % 1010.7 hPa 0.0 l/m 1.7 km/h (1 Bft) S-SO 0.00 h 104 W/m 14.5 C 18.1 C 3.1 km/h (1 Bft)
26.05.2008 10:00 17.9 C 81 % 1011.3 hPa 0.0 l/m 0.5 km/h (0 Bft) S 0.00 h 82 W/m 14.7 C 17.9 C 1.6 km/h (1 Bft)
26.05.2008 11:00 18.0 C 83 % 1012.7 hPa 0.2 l/m 3.0 km/h (1 Bft) S-SO 0.08 h 242 W/m 15.0 C 18.0 C 6.7 km/h (2 Bft)
26.05.2008 12:00 20.4 C 75 % 1012.0 hPa 0.0 l/m 5.0 km/h (1 Bft) SO 0.77 h 609 W/m 15.8 C 20.4 C 9.5 km/h (2 Bft)
26.05.2008 13:00 22.6 C 64 % 1009.9 hPa 0.0 l/m 4.4 km/h (1 Bft) SO 0.85 h 741 W/m 15.5 C 22.6 C 7.7 km/h (2 Bft)
26.05.2008 14:00 24.3 C 57 % 1009.1 hPa 0.0 l/m 3.0 km/h (1 Bft) O 0.83 h 731 W/m 15.2 C 24.3 C 6.5 km/h (2 Bft)
26.05.2008 15:00 24.2 C 56 % 1009.1 hPa 0.0 l/m 1.6 km/h (1 Bft) O-SO 0.20 h 363 W/m 14.8 C 24.2 C 3.7 km/h (1 Bft)
26.05.2008 16:00 24.5 C 56 % 1009.2 hPa 0.0 l/m 2.7 km/h (1 Bft) NW 0.33 h 329 W/m 15.2 C 24.5 C 5.3 km/h (1 Bft)
26.05.2008 17:00 24.9 C 55 % 1008.2 hPa 0.0 l/m 2.8 km/h (1 Bft) O-SO 0.53 h 333 W/m 15.3 C 24.9 C 6.0 km/h (2 Bft)
26.05.2008 18:00 24.8 C 57 % 1007.6 hPa 0.0 l/m 1.6 km/h (1 Bft) N-NW 0.48 h 248 W/m 15.6 C 24.8 C 4.3 km/h (1 Bft)
26.05.2008 19:00 24.7 C 57 % 1007.5 hPa 0.0 l/m 0.9 km/h (0 Bft) O-SO 0.00 h 96 W/m 15.7 C 24.7 C 2.7 km/h (1 Bft)
26.05.2008 20:00 23.5 C 59 % 1007.7 hPa 0.0 l/m 0.7 km/h (0 Bft) O 0.00 h 21 W/m 15.0 C 23.5 C 2.3 km/h (1 Bft)
26.05.2008 21:00 22.1 C 64 % 1008.0 hPa 0.0 l/m 1.4 km/h (1 Bft) O-SO 0.00 h 0 W/m 14.9 C 22.1 C 2.9 km/h (1 Bft)
26.05.2008 22:00 20.6 C 70 % 1008.7 hPa 0.0 l/m 0.6 km/h (0 Bft) O-SO 0.00 h 0 W/m 14.9 C 20.6 C 1.6 km/h (1 Bft)
26.05.2008 23:00 19.2 C 75 % 1008.7 hPa 0.0 l/m 1.8 km/h (1 Bft) O 0.00 h 0 W/m 14.7 C 19.2 C 2.9 km/h (1 Bft)
27.05.2008 00:00 18.3 C 79 % 1008.5 hPa 0.0 l/m 0.7 km/h (0 Bft) S-SO 0.00 h 0 W/m 14.5 C 18.3 C 1.8 km/h (1 Bft)
27.05.2008 01:00 17.2 C 83 % 1008.3 hPa 0.0 l/m 0.6 km/h (0 Bft) NO 0.00 h 0 W/m 14.3 C 17.2 C 1.5 km/h (1 Bft)
27.05.2008 02:00 16.4 C 84 % 1007.9 hPa 0.0 l/m 0.8 km/h (0 Bft) N-NO 0.00 h 0 W/m 13.6 C 16.4 C 2.1 km/h (1 Bft)
27.05.2008 03:00 15.6 C 86 % 1008.8 hPa 0.0 l/m 0.7 km/h (0 Bft) N-NO 0.00 h 0 W/m 13.2 C 15.6 C 2.4 km/h (1 Bft)
27.05.2008 04:00 15.2 C 87 % 1009.1 hPa 0.0 l/m 0.6 km/h (0 Bft) N-NO 0.00 h 0 W/m 13.0 C 15.2 C 2.4 km/h (1 Bft)
27.05.2008 05:00 15.4 C 90 % 1009.6 hPa 0.0 l/m 1.0 km/h (0 Bft) W 0.00 h 7 W/m 13.7 C 15.4 C 2.8 km/h (1 Bft)
27.05.2008 06:00 16.1 C 91 % 1009.9 hPa 0.0 l/m 0.3 km/h (0 Bft) W-NW 0.00 h 37 W/m 14.6 C 16.1 C 1.6 km/h (1 Bft)
27.05.2008 07:00 17.0 C 90 % 1009.8 hPa 0.0 l/m 0.2 km/h (0 Bft) O-NO 0.42 h 157 W/m 15.3 C 17.0 C 0.6 km/h (0 Bft)
27.05.2008 08:00 18.9 C 81 % 1009.4 hPa 0.0 l/m 1.5 km/h (1 Bft) N 0.88 h 294 W/m 15.6 C 18.9 C 3.3 km/h (1 Bft)
27.05.2008 09:00 20.9 C 72 % 1008.9 hPa 0.0 l/m 1.5 km/h (1 Bft) N 0.93 h 505 W/m 15.5 C 20.9 C 3.7 km/h (1 Bft)
27.05.2008 10:00 23.3 C 62 % 1008.2 hPa 0.0 l/m 5.1 km/h (1 Bft) O-SO 1.00 h 679 W/m 15.6 C 23.3 C 9.3 km/h (2 Bft)
27.05.2008 11:00 24.4 C 53 % 1008.1 hPa 0.0 l/m 7.8 km/h (2 Bft) O-SO 0.93 h 665 W/m 14.1 C 24.4 C 13.2 km/h (3 Bft)
27.05.2008 12:00 25.2 C 50 % 1007.6 hPa 0.0 l/m 2.7 km/h (1 Bft) O-SO 0.03 h 283 W/m 14.1 C 25.2 C 5.9 km/h (2 Bft)
27.05.2008 13:00 24.6 C 52 % 1007.3 hPa 0.0 l/m 1.3 km/h (1 Bft) O 0.00 h 115 W/m 14.0 C 24.6 C 3.7 km/h (1 Bft)
27.05.2008 14:00 24.1 C 58 % 1006.7 hPa 0.0 l/m 0.9 km/h (0 Bft) N-NW 0.00 h 253 W/m 15.4 C 24.1 C 2.5 km/h (1 Bft)
27.05.2008 15:00 25.4 C 52 % 1006.3 hPa 0.0 l/m 1.6 km/h (1 Bft) O 0.13 h 324 W/m 14.8 C 25.4 C 4.1 km/h (1 Bft)
27.05.2008 16:00 26.7 C 50 % 1005.8 hPa 0.0 l/m 2.2 km/h (1 Bft) O-SO 0.60 h 437 W/m 15.5 C 26.7 C 4.6 km/h (1 Bft)
27.05.2008 17:00 27.6 C 44 % 1004.8 hPa 0.0 l/m 3.2 km/h (1 Bft) O-SO 0.85 h 439 W/m 14.2 C 27.6 C 6.6 km/h (2 Bft)
27.05.2008 18:00 29.1 C 33 % 1004.4 hPa 0.0 l/m 6.0 km/h (2 Bft) O-SO 1.00 h 363 W/m 11.0 C 29.1 C 10.3 km/h (2 Bft)
27.05.2008 19:00 28.6 C 30 % 1004.1 hPa 0.0 l/m 9.4 km/h (2 Bft) SO 0.45 h 161 W/m 9.1 C 28.6 C 15.2 km/h (3 Bft)
27.05.2008 20:00 27.0 C 33 % 1004.2 hPa 0.0 l/m 5.5 km/h (1 Bft) O-SO 0.12 h 41 W/m 9.5 C 27.0 C 9.4 km/h (2 Bft)
27.05.2008 21:00 26.1 C 33 % 1004.0 hPa 0.0 l/m 7.0 km/h (2 Bft) SO 0.00 h 5 W/m 8.7 C 26.1 C 11.6 km/h (2 Bft)
27.05.2008 22:00 24.8 C 39 % 1004.3 hPa 0.0 l/m 1.6 km/h (1 Bft) O-SO 0.00 h 0 W/m 9.7 C 24.8 C 3.3 km/h (1 Bft)
27.05.2008 23:00 22.3 C 48 % 1004.4 hPa 0.0 l/m 2.7 km/h (1 Bft) O-SO 0.00 h 0 W/m 10.8 C 22.3 C 4.6 km/h (1 Bft)
28.05.2008 00:00 20.7 C 57 % 1004.6 hPa 0.0 l/m 1.0 km/h (0 Bft) NO 0.00 h 0 W/m 11.8 C 20.7 C 2.5 km/h (1 Bft)
28.05.2008 01:00 19.8 C 58 % 1004.2 hPa 0.0 l/m 2.9 km/h (1 Bft) O-SO 0.00 h 0 W/m 11.3 C 19.8 C 5.2 km/h (1 Bft)
28.05.2008 02:00 18.7 C 64 % 1004.2 hPa 0.0 l/m 0.7 km/h (0 Bft) W-NW 0.00 h 0 W/m 11.6 C 18.7 C 2.2 km/h (1 Bft)
28.05.2008 03:00 17.6 C 67 % 1004.4 hPa 0.0 l/m 1.0 km/h (0 Bft) N-NW 0.00 h 0 W/m 11.3 C 17.6 C 2.5 km/h (1 Bft)
28.05.2008 04:00 16.9 C 69 % 1004.6 hPa 0.0 l/m 1.0 km/h (0 Bft) O 0.00 h 0 W/m 11.2 C 16.9 C 2.5 km/h (1 Bft)
28.05.2008 05:00 16.0 C 73 % 1005.0 hPa 0.0 l/m 3.2 km/h (1 Bft) O 0.00 h 8 W/m 11.2 C 16.0 C 5.8 km/h (2 Bft)
28.05.2008 06:00 17.8 C 73 % 1006.0 hPa 0.0 l/m 12.7 km/h (3 Bft) W-NW 0.00 h 28 W/m 12.8 C 17.8 C 21.2 km/h (4 Bft)
28.05.2008 07:00 19.5 C 73 % 1007.1 hPa 0.0 l/m 12.0 km/h (2 Bft) W 0.30 h 129 W/m 14.5 C 19.5 C 20.4 km/h (4 Bft)
28.05.2008 08:00 19.9 C 72 % 1007.9 hPa 0.0 l/m 9.1 km/h (2 Bft) W 0.15 h 205 W/m 14.6 C 19.9 C 15.1 km/h (3 Bft)
28.05.2008 09:00 20.3 C 71 % 1008.8 hPa 0.0 l/m 12.4 km/h (3 Bft) W 0.25 h 296 W/m 14.8 C 20.3 C 19.4 km/h (3 Bft)
28.05.2008 10:00 21.3 C 70 % 1009.1 hPa 0.0 l/m 9.1 km/h (2 Bft) W 0.92 h 525 W/m 15.5 C 21.3 C 15.2 km/h (3 Bft)
28.05.2008 11:00 22.8 C 63 % 1009.3 hPa 0.0 l/m 9.1 km/h (2 Bft) W 1.00 h 716 W/m 15.4 C 22.8 C 14.9 km/h (3 Bft)
28.05.2008 12:00 23.4 C 60 % 1009.6 hPa 0.0 l/m 10.1 km/h (2 Bft) W 0.98 h 700 W/m 15.2 C 23.4 C 17.4 km/h (3 Bft)
28.05.2008 13:00 24.1 C 59 % 1009.9 hPa 0.0 l/m 10.6 km/h (2 Bft) W 0.93 h 774 W/m 15.5 C 24.1 C 17.7 km/h (3 Bft)
28.05.2008 14:00 24.8 C 57 % 1010.0 hPa 0.0 l/m 9.5 km/h (2 Bft) W 0.88 h 707 W/m 15.8 C 24.8 C 16.6 km/h (3 Bft)
28.05.2008 15:00 25.2 C 57 % 1010.1 hPa 0.0 l/m 10.7 km/h (2 Bft) W 1.00 h 666 W/m 16.0 C 25.2 C 17.8 km/h (3 Bft)
28.05.2008 16:00 24.9 C 56 % 1010.5 hPa 0.0 l/m 13.5 km/h (3 Bft) W 1.00 h 584 W/m 15.4 C 24.9 C 22.1 km/h (4 Bft)
28.05.2008 17:00 24.6 C 57 % 1010.4 hPa 0.0 l/m 7.1 km/h (2 Bft) W 1.00 h 413 W/m 15.5 C 24.6 C 12.5 km/h (3 Bft)
28.05.2008 18:00 23.9 C 61 % 1010.2 hPa 0.0 l/m 4.9 km/h (1 Bft) W-NW 0.95 h 279 W/m 15.7 C 23.9 C 8.4 km/h (2 Bft)
28.05.2008 19:00 23.1 C 62 % 1010.5 hPa 0.0 l/m 6.4 km/h (2 Bft) W 1.00 h 203 W/m 15.4 C 23.1 C 11.1 km/h (2 Bft)
28.05.2008 20:00 22.2 C 65 % 1010.6 hPa 0.0 l/m 1.1 km/h (1 Bft) W 0.95 h 67 W/m 15.4 C 22.2 C 2.9 km/h (1 Bft)
28.05.2008 21:00 21.2 C 69 % 1010.8 hPa 0.0 l/m 0.4 km/h (0 Bft) W-NW 0.03 h 11 W/m 15.3 C 21.2 C 1.6 km/h (1 Bft)
28.05.2008 22:00 20.0 C 75 % 1010.6 hPa 0.0 l/m 1.3 km/h (1 Bft) N-NO 0.00 h 0 W/m 15.3 C 20.0 C 3.2 km/h (1 Bft)
28.05.2008 23:00 18.8 C 81 % 1010.5 hPa 0.0 l/m 1.2 km/h (1 Bft) SO 0.00 h 0 W/m 15.4 C 18.8 C 2.3 km/h (1 Bft)
29.05.2008 00:00 18.0 C 83 % 1009.9 hPa 0.0 l/m 0.9 km/h (0 Bft) SO 0.00 h 0 W/m 15.1 C 18.0 C 2.0 km/h (1 Bft)
29.05.2008 01:00 17.4 C 87 % 1009.4 hPa 0.0 l/m 0.9 km/h (0 Bft) SO 0.00 h 0 W/m 15.1 C 17.4 C 1.9 km/h (1 Bft)
29.05.2008 02:00 17.3 C 86 % 1008.6 hPa 0.0 l/m 0.5 km/h (0 Bft) SO 0.00 h 0 W/m 15.0 C 17.3 C 1.6 km/h (1 Bft)
29.05.2008 03:00 17.3 C 87 % 1008.2 hPa 0.0 l/m 0.3 km/h (0 Bft) SO 0.00 h 0 W/m 15.1 C 17.3 C 1.0 km/h (0 Bft)
29.05.2008 04:00 17.2 C 87 % 1007.5 hPa 0.0 l/m 0.5 km/h (0 Bft) NO 0.00 h 0 W/m 15.1 C 17.2 C 1.6 km/h (1 Bft)
29.05.2008 05:00 16.4 C 91 % 1007.1 hPa 0.0 l/m 0.8 km/h (0 Bft) N-NW 0.00 h 8 W/m 15.0 C 16.4 C 2.2 km/h (1 Bft)
29.05.2008 06:00 16.5 C 91 % 1007.4 hPa 0.0 l/m 3.4 km/h (1 Bft) N-NW 0.00 h 24 W/m 15.0 C 16.5 C 6.0 km/h (2 Bft)
29.05.2008 07:00 17.4 C 86 % 1008.1 hPa 0.0 l/m 0.9 km/h (0 Bft) N 0.00 h 78 W/m 15.0 C 17.4 C 2.6 km/h (1 Bft)
29.05.2008 08:00 18.7 C 79 % 1008.4 hPa 0.0 l/m 4.0 km/h (1 Bft) W 0.33 h 252 W/m 15.1 C 18.7 C 7.4 km/h (2 Bft)
29.05.2008 09:00 19.3 C 77 % 1009.0 hPa 0.0 l/m 6.3 km/h (2 Bft) W 0.28 h 286 W/m 15.1 C 19.3 C 12.1 km/h (2 Bft)
29.05.2008 10:00 21.8 C 71 % 1008.3 hPa 0.0 l/m 2.8 km/h (1 Bft) W-SW 0.95 h 642 W/m 16.3 C 21.8 C 6.0 km/h (2 Bft)
29.05.2008 11:00 23.1 C 67 % 1008.1 hPa 0.0 l/m 4.6 km/h (1 Bft) W 0.72 h 653 W/m 16.5 C 23.1 C 7.7 km/h (2 Bft)
29.05.2008 12:00 24.6 C 62 % 1007.7 hPa 0.0 l/m 5.7 km/h (1 Bft) W 0.92 h 739 W/m 16.7 C 24.6 C 9.7 km/h (2 Bft)
29.05.2008 13:00 25.1 C 58 % 1007.3 hPa 0.0 l/m 8.0 km/h (2 Bft) W 0.57 h 689 W/m 16.3 C 25.1 C 13.6 km/h (3 Bft)
29.05.2008 14:00 24.0 C 63 % 1007.1 hPa 0.0 l/m 5.9 km/h (2 Bft) W 0.00 h 326 W/m 16.4 C 24.0 C 9.9 km/h (2 Bft)
29.05.2008 15:00 24.5 C 63 % 1006.9 hPa 0.0 l/m 5.3 km/h (1 Bft) W 0.45 h 422 W/m 17.0 C 24.5 C 9.2 km/h (2 Bft)
29.05.2008 16:00 24.0 C 64 % 1006.7 hPa 0.0 l/m 7.8 km/h (2 Bft) W 0.13 h 306 W/m 16.8 C 24.0 C 12.9 km/h (3 Bft)
29.05.2008 17:00 24.8 C 62 % 1006.3 hPa 0.0 l/m 5.8 km/h (2 Bft) W 0.52 h 384 W/m 17.0 C 24.8 C 9.4 km/h (2 Bft)
29.05.2008 18:00 23.8 C 64 % 1005.8 hPa 0.0 l/m 8.2 km/h (2 Bft) W 0.00 h 122 W/m 16.6 C 23.8 C 14.3 km/h (3 Bft)
29.05.2008 19:00 22.7 C 69 % 1005.5 hPa 0.0 l/m 10.1 km/h (2 Bft) W 0.00 h 51 W/m 16.7 C 22.7 C 18.1 km/h (3 Bft)
29.05.2008 20:00 22.1 C 71 % 1005.9 hPa 0.0 l/m 6.5 km/h (2 Bft) W 0.00 h 18 W/m 16.6 C 22.1 C 12.5 km/h (3 Bft)
29.05.2008 21:00 20.2 C 80 % 1006.7 hPa 7.4 l/m 7.8 km/h (2 Bft) W-NW 0.00 h 0 W/m 16.7 C 20.2 C 12.9 km/h (3 Bft)
29.05.2008 22:00 17.9 C 94 % 1006.8 hPa 0.4 l/m 3.9 km/h (1 Bft) O-SO 0.00 h 0 W/m 17.0 C 17.9 C 7.0 km/h (2 Bft)
29.05.2008 23:00 17.3 C 96 % 1006.8 hPa 0.0 l/m 2.3 km/h (1 Bft) O 0.00 h 0 W/m 16.7 C 17.3 C 4.1 km/h (1 Bft)
30.05.2008 00:00 17.8 C 97 % 1007.0 hPa 0.0 l/m 3.3 km/h (1 Bft) W 0.00 h 0 W/m 17.3 C 17.8 C 6.1 km/h (2 Bft)
30.05.2008 01:00 17.5 C 99 % 1007.3 hPa 0.0 l/m 3.8 km/h (1 Bft) W 0.00 h 0 W/m 17.3 C 17.5 C 6.8 km/h (2 Bft)
30.05.2008 02:00 17.3 C 99 % 1007.6 hPa 0.0 l/m 6.8 km/h (2 Bft) W 0.00 h 0 W/m 17.2 C 17.3 C 11.3 km/h (2 Bft)
30.05.2008 03:00 17.3 C 97 % 1007.9 hPa 0.0 l/m 5.4 km/h (1 Bft) W 0.00 h 0 W/m 16.7 C 17.3 C 8.8 km/h (2 Bft)
30.05.2008 04:00 17.1 C 93 % 1007.9 hPa 0.0 l/m 0.4 km/h (0 Bft) W 0.00 h 0 W/m 16.0 C 17.1 C 1.5 km/h (1 Bft)
30.05.2008 05:00 17.3 C 93 % 1008.5 hPa 0.0 l/m 0.5 km/h (0 Bft) S-SO 0.00 h 0 W/m 16.1 C 17.3 C 2.1 km/h (1 Bft)
30.05.2008 06:00 17.1 C 94 % 1009.4 hPa 0.0 l/m 1.3 km/h (1 Bft) W 0.00 h 26 W/m 16.1 C 17.1 C 2.6 km/h (1 Bft)
30.05.2008 07:00 17.1 C 91 % 1009.5 hPa 0.0 l/m 2.7 km/h (1 Bft) W 0.12 h 110 W/m 15.7 C 17.1 C 5.1 km/h (1 Bft)
30.05.2008 08:00 17.8 C 86 % 1009.2 hPa 0.0 l/m 4.8 km/h (1 Bft) W 0.37 h 226 W/m 15.5 C 17.8 C 8.0 km/h (2 Bft)
30.05.2008 09:00 18.8 C 83 % 1009.3 hPa 0.0 l/m 4.1 km/h (1 Bft) W-SW 0.27 h 292 W/m 15.8 C 18.8 C 7.3 km/h (2 Bft)
30.05.2008 10:00 19.9 C 78 % 1009.2 hPa 0.0 l/m 4.1 km/h (1 Bft) W 0.62 h 505 W/m 16.0 C 19.9 C 7.0 km/h (2 Bft)
30.05.2008 11:00 21.3 C 74 % 1008.9 hPa 0.0 l/m 4.6 km/h (1 Bft) N-NW 0.90 h 692 W/m 16.4 C 21.3 C 7.3 km/h (2 Bft)
30.05.2008 12:00 21.9 C 72 % 1008.8 hPa 0.0 l/m 2.6 km/h (1 Bft) N-NW 0.57 h 512 W/m 16.7 C 21.9 C 4.8 km/h (1 Bft)
30.05.2008 13:00 22.1 C 73 % 1008.5 hPa 0.0 l/m 2.7 km/h (1 Bft) W 0.47 h 470 W/m 17.0 C 22.1 C 5.1 km/h (1 Bft)
30.05.2008 14:00 22.4 C 72 % 1008.1 hPa 0.0 l/m 3.0 km/h (1 Bft) W-SW 0.33 h 423 W/m 16.9 C 22.4 C 5.5 km/h (1 Bft)
30.05.2008 15:00 24.1 C 64 % 1007.7 hPa 0.0 l/m 2.7 km/h (1 Bft) W-SW 0.95 h 632 W/m 16.7 C 24.1 C 5.0 km/h (1 Bft)
30.05.2008 16:00 24.3 C 61 % 1007.1 hPa 0.0 l/m 3.3 km/h (1 Bft) N-NW 0.82 h 490 W/m 16.3 C 24.3 C 5.9 km/h (2 Bft)
30.05.2008 17:00 24.1 C 60 % 1007.1 hPa 0.0 l/m 2.7 km/h (1 Bft) W-NW 0.55 h 323 W/m 15.9 C 24.1 C 4.6 km/h (1 Bft)
30.05.2008 18:00 24.2 C 60 % 1007.0 hPa 0.0 l/m 1.9 km/h (1 Bft) W 0.78 h 290 W/m 15.9 C 24.2 C 3.9 km/h (1 Bft)
30.05.2008 19:00 24.2 C 60 % 1006.7 hPa 0.0 l/m 2.5 km/h (1 Bft) W 0.97 h 197 W/m 16.0 C 24.2 C 4.7 km/h (1 Bft)
30.05.2008 20:00 20.1 C 69 % 1008.4 hPa 0.0 l/m 8.7 km/h (2 Bft) S 0.00 h 17 W/m 14.2 C 20.1 C 16.8 km/h (3 Bft)
30.05.2008 21:00 17.9 C 75 % 1011.4 hPa 0.6 l/m 5.4 km/h (1 Bft) W 0.00 h 0 W/m 13.2 C 17.9 C 9.9 km/h (2 Bft)
30.05.2008 22:00 15.7 C 94 % 1012.7 hPa 1.6 l/m 1.3 km/h (1 Bft) W-SW 0.00 h 0 W/m 14.6 C 15.7 C 3.6 km/h (1 Bft)
30.05.2008 23:00 15.3 C 98 % 1012.6 hPa 0.6 l/m 0.6 km/h (0 Bft) SW 0.00 h 0 W/m 15.0 C 15.3 C 2.8 km/h (1 Bft)
31.05.2008 00:00 15.2 C 97 % 1012.6 hPa 0.0 l/m 1.6 km/h (1 Bft) S-SO 0.00 h 0 W/m 14.7 C 15.2 C 3.7 km/h (1 Bft)
31.05.2008 01:00 15.0 C 98 % 1012.6 hPa 0.0 l/m 0.0 km/h (0 Bft) N 0.00 h 0 W/m 14.6 C 15.0 C 0.6 km/h (0 Bft)
31.05.2008 02:00 14.9 C 98 % 1012.5 hPa 0.0 l/m 0.2 km/h (0 Bft) S-SO 0.00 h 0 W/m 14.6 C 14.9 C 0.8 km/h (0 Bft)
31.05.2008 03:00 14.9 C 98 % 1012.4 hPa 0.0 l/m 0.2 km/h (0 Bft) S-SO 0.00 h 0 W/m 14.6 C 14.9 C 1.1 km/h (0 Bft)
31.05.2008 04:00 14.7 C 99 % 1012.7 hPa 0.0 l/m 0.7 km/h (0 Bft) S-SO 0.00 h 0 W/m 14.5 C 14.7 C 1.3 km/h (1 Bft)
31.05.2008 05:00 14.6 C 99 % 1012.9 hPa 0.0 l/m 0.5 km/h (0 Bft) S-SO 0.00 h 8 W/m 14.5 C 14.6 C 1.5 km/h (1 Bft)
31.05.2008 06:00 14.7 C 99 % 1013.4 hPa 0.0 l/m 0.0 km/h (0 Bft) N 0.00 h 28 W/m 14.6 C 14.7 C 0.0 km/h (0 Bft)
31.05.2008 07:00 15.1 C 100 % 1013.8 hPa 0.0 l/m 0.1 km/h (0 Bft) S-SO 0.22 h 130 W/m 15.1 C 15.1 C 0.6 km/h (0 Bft)
31.05.2008 08:00 16.1 C 99 % 1014.1 hPa 0.0 l/m 0.7 km/h (0 Bft) S-SO 0.43 h 247 W/m 15.9 C 16.1 C 2.5 km/h (1 Bft)
31.05.2008 09:00 17.2 C 92 % 1014.6 hPa 0.0 l/m 1.9 km/h (1 Bft) W 0.97 h 371 W/m 15.9 C 17.2 C 4.8 km/h (1 Bft)
31.05.2008 10:00 18.2 C 86 % 1014.7 hPa 0.0 l/m 2.0 km/h (1 Bft) S 0.87 h 502 W/m 15.7 C 18.2 C 5.3 km/h (1 Bft)
31.05.2008 11:00 19.5 C 77 % 1014.6 hPa 0.0 l/m 2.2 km/h (1 Bft) W-NW 0.75 h 561 W/m 15.3 C 19.5 C 5.1 km/h (1 Bft)
31.05.2008 12:00 19.9 C 73 % 1014.3 hPa 0.0 l/m 3.8 km/h (1 Bft) W-NW 0.60 h 559 W/m 14.9 C 19.9 C 6.5 km/h (2 Bft)
31.05.2008 13:00 21.9 C 67 % 1014.0 hPa 0.0 l/m 3.4 km/h (1 Bft) W-NW 0.88 h 870 W/m 15.4 C 21.9 C 5.7 km/h (1 Bft)
31.05.2008 14:00 22.2 C 65 % 1013.5 hPa 0.0 l/m 2.7 km/h (1 Bft) W-NW 0.38 h 521 W/m 15.4 C 22.2 C 5.5 km/h (1 Bft)
31.05.2008 15:00 23.4 C 58 % 1013.7 hPa 0.0 l/m 8.2 km/h (2 Bft) W-SW 0.62 h 631 W/m 14.5 C 23.4 C 15.1 km/h (3 Bft)
31.05.2008 16:00 20.8 C 68 % 1014.2 hPa 0.0 l/m 5.4 km/h (1 Bft) S-SO 0.00 h 278 W/m 14.7 C 20.8 C 11.4 km/h (2 Bft)
31.05.2008 17:00 20.8 C 71 % 1014.0 hPa 0.0 l/m 5.5 km/h (1 Bft) S-SO 0.88 h 515 W/m 15.4 C 20.8 C 11.1 km/h (2 Bft)
31.05.2008 18:00 21.4 C 71 % 1014.0 hPa 0.0 l/m 3.2 km/h (1 Bft) S 0.88 h 365 W/m 15.8 C 21.4 C 6.9 km/h (2 Bft)
31.05.2008 19:00 20.6 C 72 % 1014.2 hPa 0.0 l/m 2.4 km/h (1 Bft) S-SO 0.73 h 172 W/m 15.5 C 20.6 C 5.3 km/h (1 Bft)
31.05.2008 20:00 19.3 C 76 % 1014.4 hPa 0.0 l/m 1.5 km/h (1 Bft) S-SW 0.40 h 53 W/m 15.0 C 19.3 C 3.8 km/h (1 Bft)
31.05.2008 21:00 17.5 C 84 % 1014.9 hPa 0.0 l/m 0.2 km/h (0 Bft) S-SO 0.02 h 7 W/m 14.8 C 17.5 C 1.1 km/h (0 Bft)
31.05.2008 22:00 16.2 C 89 % 1015.3 hPa 0.0 l/m 0.1 km/h (0 Bft) S-SO 0.00 h 0 W/m 14.3 C 16.2 C 0.5 km/h (0 Bft)
31.05.2008 23:00 15.4 C 91 % 1015.5 hPa 0.0 l/m 0.6 km/h (0 Bft) SO 0.00 h 0 W/m 14.0 C 15.4 C 1.5 km/h (1 Bft)
01.06.2008 00:00 14.3 C 95 % 1015.6 hPa 0.0 l/m 0.2 km/h (0 Bft) SO 0.00 h 0 W/m 13.6 C 14.3 C 0.7 km/h (0 Bft)
01.06.2008 01:00 13.8 C 96 % 1015.3 hPa 0.0 l/m 0.8 km/h (0 Bft) SO 0.00 h 0 W/m 13.2 C 13.8 C 1.7 km/h (1 Bft)
01.06.2008 02:00 13.2 C 97 % 1015.2 hPa 0.0 l/m 0.4 km/h (0 Bft) SO 0.00 h 0 W/m 12.7 C 13.2 C 0.8 km/h (0 Bft)
01.06.2008 03:00 12.8 C 97 % 1015.5 hPa 0.0 l/m 0.5 km/h (0 Bft) SO 0.00 h 0 W/m 12.3 C 12.8 C 1.2 km/h (1 Bft)
01.06.2008 04:00 12.4 C 98 % 1015.5 hPa 0.0 l/m 0.1 km/h (0 Bft) SO 0.00 h 0 W/m 12.1 C 12.4 C 0.3 km/h (0 Bft)
01.06.2008 05:00 12.2 C 99 % 1015.6 hPa 0.2 l/m 0.1 km/h (0 Bft) SO 0.05 h 11 W/m 12.0 C 12.2 C 0.5 km/h (0 Bft)
01.06.2008 06:00 12.6 C 100 % 1015.6 hPa 0.0 l/m 0.1 km/h (0 Bft) SO 0.03 h 50 W/m 12.6 C 12.6 C 0.7 km/h (0 Bft)
01.06.2008 07:00 13.5 C 100 % 1015.7 hPa 0.0 l/m 0.1 km/h (0 Bft) SO 0.10 h 124 W/m 13.5 C 13.5 C 0.6 km/h (0 Bft)
01.06.2008 08:00 15.4 C 92 % 1015.9 hPa 0.0 l/m 1.7 km/h (1 Bft) W 0.68 h 335 W/m 14.2 C 15.4 C 3.4 km/h (1 Bft)
01.06.2008 09:00 17.3 C 85 % 1015.8 hPa 0.0 l/m 2.2 km/h (1 Bft) W 0.85 h 448 W/m 14.7 C 17.3 C 4.1 km/h (1 Bft)
01.06.2008 10:00 19.5 C 75 % 1015.2 hPa 0.0 l/m 2.5 km/h (1 Bft) W 0.98 h 580 W/m 15.0 C 19.5 C 4.7 km/h (1 Bft)
01.06.2008 11:00 21.7 C 69 % 1014.8 hPa 0.0 l/m 1.9 km/h (1 Bft) W 0.88 h 629 W/m 15.7 C 21.7 C 3.9 km/h (1 Bft)
01.06.2008 12:00 23.1 C 63 % 1014.5 hPa 0.0 l/m 3.6 km/h (1 Bft) O-SO 0.97 h 683 W/m 15.8 C 23.1 C 6.5 km/h (2 Bft)
01.06.2008 13:00 24.2 C 59 % 1014.0 hPa 0.0 l/m 2.3 km/h (1 Bft) O-SO 0.73 h 601 W/m 15.5 C 24.2 C 5.1 km/h (1 Bft)
01.06.2008 14:00 25.0 C 51 % 1013.5 hPa 0.0 l/m 5.9 km/h (2 Bft) O-SO 0.82 h 675 W/m 14.2 C 25.0 C 10.4 km/h (2 Bft)
01.06.2008 15:00 24.5 C 49 % 1013.0 hPa 0.0 l/m 5.1 km/h (1 Bft) O-SO 0.13 h 349 W/m 13.1 C 24.5 C 8.8 km/h (2 Bft)
01.06.2008 16:00 24.8 C 50 % 1012.5 hPa 0.0 l/m 1.7 km/h (1 Bft) O 0.13 h 321 W/m 13.5 C 24.8 C 4.4 km/h (1 Bft)
01.06.2008 17:00 24.7 C 52 % 1011.8 hPa 0.0 l/m 1.5 km/h (1 Bft) O-SO 0.05 h 244 W/m 14.2 C 24.7 C 3.5 km/h (1 Bft)
01.06.2008 18:00 24.9 C 52 % 1011.2 hPa 0.0 l/m 0.6 km/h (0 Bft) O-NO 0.58 h 241 W/m 14.3 C 24.9 C 2.1 km/h (1 Bft)
01.06.2008 19:00 24.5 C 57 % 1010.9 hPa 0.0 l/m 0.4 km/h (0 Bft) NO 0.00 h 119 W/m 15.3 C 24.5 C 1.6 km/h (1 Bft)
01.06.2008 20:00 23.6 C 56 % 1010.5 hPa 0.0 l/m 0.9 km/h (0 Bft) NO 0.00 h 33 W/m 14.4 C 23.6 C 2.6 km/h (1 Bft)
01.06.2008 21:00 21.8 C 65 % 1010.6 hPa 0.0 l/m 0.3 km/h (0 Bft) N-NO 0.00 h 5 W/m 14.9 C 21.8 C 1.1 km/h (1 Bft)
01.06.2008 22:00 20.1 C 76 % 1010.9 hPa 0.0 l/m 0.0 km/h (0 Bft) N 0.00 h 0 W/m 15.8 C 20.1 C 0.3 km/h (0 Bft)
01.06.2008 23:00 19.6 C 78 % 1010.8 hPa 0.0 l/m 0.2 km/h (0 Bft) N-NO 0.00 h 0 W/m 15.7 C 19.6 C 0.7 km/h (0 Bft)
Min-Datum _ 01.06.08 27.05.08 27.05.08 - 26.05.08 - - - 27.05.08 01.06.08 26.05.08
_ Min-Zeit 05:16 19:15 19:15 - 00:00 - - - 21:58 05:16 00:01
Minimum _ 11.8 C 27 % 1003.8 hPa - 0.0 km/h (0 Bft) - - - 7.7 C 11.8 C 0.0 km/h (0 Bft)
Max-Datum _ 27.05.08 31.05.08 01.06.08 29.05.08 26.05.08 - 26.05.08 01.06.08 30.05.08 27.05.08 30.05.08
_ Max-Zeit 18:31 05:03 08:30 21:41 04:43 - 11:55 13:41 14:57 18:31 21:13
Maximum _ 29.2 C 100 % 1016.0 hPa 7.4 l/m 26.1 km/h
SO (4 Bft)
- 0.02 h 1232 W/m 18.4 C 29.2 C 43.5 km/h
W (6 Bft)
Durchschnitt _ 20.1 C 73 % 1009.8 hPa #11.0 l/m 3.2 km/h (1 Bft) W #50:59 h 322 W/m 14.7 C 20.1 C 6.0 km/h (2 Bft)
© Kaiko 2008